Rancho Park, California
Current Conditions -  °F | °C
As of 10:51 PM on Sunday 21 Dec 2014 (Local Time) from KSMO Reporting Station
Haze Haze  
Wind Chill: 58°   Ceiling: Unl
Heat Index: 58°   Visibility: 5mi
Dew Point: 53°   Wind: 0mph
Humidity: 84%   Direction: NA
Pressure: 30.06"   Gusts: NA
Location:  34.0365°N, 118.425°W
Report Text: KSMO 220651Z AUTO 00000KT 5SM HZ CLR 14/12 A3006 RMK AO2 SLP177 T01440117 $
Loading
Personal Weather Stations






























Interactive Weather Map New forecast layout! Learn more

10-Day Weather Forecast

Advertisements
Track Severe Weather on mobile